createdAt,value
2024-03-01T00:00:41.992Z,29.00
2024-03-01T00:03:10.397Z,29.05
2024-03-01T00:05:37.622Z,29.35
2024-03-01T00:08:04.809Z,25.40
2024-03-01T00:10:31.747Z,28.73
2024-03-01T00:12:58.999Z,28.58
2024-03-01T00:15:26.184Z,27.65
2024-03-01T00:17:53.389Z,32.63
2024-03-01T00:20:20.525Z,32.88
2024-03-01T00:22:48.725Z,34.30
2024-03-01T00:25:16.034Z,31.10
2024-03-01T00:27:43.261Z,28.65
2024-03-01T00:30:10.740Z,35.55
2024-03-01T00:32:37.947Z,33.28
2024-03-01T00:35:05.206Z,30.95
2024-03-01T00:37:32.410Z,30.80
2024-03-01T00:39:59.639Z,32.67
2024-03-01T00:42:26.902Z,33.03
2024-03-01T00:44:54.375Z,30.90
2024-03-01T00:47:22.446Z,34.40
2024-03-01T00:49:49.675Z,32.15
2024-03-01T00:52:16.975Z,35.65
2024-03-01T00:54:43.864Z,31.80
2024-03-01T00:57:12.379Z,30.50
2024-03-01T00:59:39.509Z,26.73
2024-03-01T01:02:08.558Z,32.08
2024-03-01T01:04:36.625Z,32.53
2024-03-01T01:07:03.867Z,31.60
2024-03-01T01:09:31.109Z,34.78
2024-03-01T01:11:58.829Z,25.38
2024-03-01T01:14:26.032Z,25.20
2024-03-01T01:16:53.244Z,31.73
2024-03-01T01:19:20.497Z,29.52
2024-03-01T01:21:47.742Z,27.13
2024-03-01T01:24:14.907Z,27.33
2024-03-01T01:26:42.023Z,27.63
2024-03-01T01:29:08.873Z,24.27
2024-03-01T01:31:36.109Z,19.70
2024-03-01T01:34:03.352Z,23.80
2024-03-01T01:36:30.638Z,26.17
2024-03-01T01:38:57.945Z,29.08
2024-03-01T01:41:25.109Z,23.08
2024-03-01T01:43:52.234Z,23.38
2024-03-01T01:46:19.423Z,22.20
2024-03-01T01:48:46.782Z,19.83
2024-03-01T01:51:18.399Z,21.65
2024-03-01T01:53:45.678Z,23.77
2024-03-01T01:56:14.760Z,21.48
2024-03-01T01:58:42.734Z,26.60
2024-03-01T02:01:10.630Z,16.95
2024-03-01T02:03:39.437Z,18.58
2024-03-01T02:06:07.037Z,22.45
2024-03-01T02:08:35.257Z,20.02
2024-03-01T02:11:03.262Z,22.20
2024-03-01T02:13:30.677Z,20.17
2024-03-01T02:15:57.966Z,20.17
2024-03-01T02:18:24.737Z,18.45
2024-03-01T02:21:02.011Z,18.80
2024-03-01T02:23:29.318Z,18.13
2024-03-01T02:25:56.604Z,17.75
2024-03-01T02:28:24.019Z,17.90
2024-03-01T02:30:54.329Z,13.95
2024-03-01T02:33:21.802Z,18.88
2024-03-01T02:35:49.221Z,14.77
2024-03-01T02:38:16.710Z,20.20
2024-03-01T02:40:44.268Z,18.50
2024-03-01T02:43:11.658Z,18.85
2024-03-01T02:45:38.934Z,16.95
2024-03-01T02:48:06.867Z,20.27
2024-03-01T02:50:34.427Z,18.77
2024-03-01T02:53:01.156Z,23.48
2024-03-01T02:55:28.097Z,18.63
2024-03-01T02:57:56.575Z,16.73
2024-03-01T03:00:24.100Z,20.52
2024-03-01T03:02:52.896Z,18.02
2024-03-01T03:05:20.112Z,16.25
2024-03-01T03:07:51.386Z,14.95
2024-03-01T03:10:18.789Z,24.02
2024-03-01T03:12:46.280Z,17.92
2024-03-01T03:15:14.663Z,19.92
2024-03-01T03:17:41.971Z,20.02
2024-03-01T03:20:12.257Z,17.52
2024-03-01T03:22:40.048Z,22.63
2024-03-01T03:25:09.642Z,19.67
2024-03-01T03:27:37.373Z,13.85
2024-03-01T03:30:07.626Z,16.58
2024-03-01T03:32:35.356Z,20.98
2024-03-01T03:35:02.590Z,18.65
2024-03-01T03:37:29.888Z,16.63
2024-03-01T03:39:57.098Z,15.05
2024-03-01T03:42:23.875Z,14.10
2024-03-01T03:44:51.009Z,16.52
2024-03-01T03:47:18.180Z,14.63
2024-03-01T03:49:48.066Z,18.10
2024-03-01T03:52:15.242Z,14.85
2024-03-01T03:54:42.462Z,17.42
2024-03-01T03:57:09.584Z,18.02
2024-03-01T03:59:36.829Z,13.48
2024-03-01T04:02:04.178Z,23.98
2024-03-01T04:04:31.572Z,12.18
2024-03-01T04:07:02.004Z,13.90
2024-03-01T04:09:29.220Z,17.05
2024-03-01T04:11:57.236Z,16.77
2024-03-01T04:14:24.483Z,14.00
2024-03-01T04:16:51.675Z,16.90
2024-03-01T04:19:18.897Z,16.67
2024-03-01T04:21:46.349Z,15.93
2024-03-01T04:24:13.905Z,21.20
2024-03-01T04:26:41.291Z,18.02
2024-03-01T04:29:08.609Z,17.58
2024-03-01T04:31:37.126Z,16.50
2024-03-01T04:34:07.410Z,18.60
2024-03-01T04:36:35.029Z,19.98
2024-03-01T04:39:07.108Z,20.48
2024-03-01T04:41:34.043Z,19.20
2024-03-01T04:44:01.189Z,16.10
2024-03-01T04:46:28.464Z,17.27
2024-03-01T04:48:56.730Z,16.85
2024-03-01T04:51:25.297Z,14.95
2024-03-01T04:53:52.623Z,21.10
2024-03-01T04:56:19.836Z,19.45
2024-03-01T04:58:47.026Z,15.00
2024-03-01T05:01:16.672Z,17.65
2024-03-01T05:03:45.598Z,21.20
2024-03-01T05:06:12.858Z,19.20
2024-03-01T05:08:39.711Z,18.83
2024-03-01T05:11:07.357Z,19.50
2024-03-01T05:13:34.446Z,19.48
2024-03-01T05:16:01.975Z,17.40
2024-03-01T05:18:29.238Z,21.73
2024-03-01T05:20:56.135Z,16.65
2024-03-01T05:23:23.374Z,16.77
2024-03-01T05:25:50.844Z,16.83
2024-03-01T05:28:18.105Z,19.73
2024-03-01T05:30:50.093Z,18.65
2024-03-01T05:33:20.300Z,16.42
2024-03-01T05:35:47.818Z,17.05
2024-03-01T05:38:15.127Z,21.85
2024-03-01T05:40:46.862Z,17.85
2024-03-01T05:43:19.649Z,18.17
2024-03-01T05:45:46.872Z,18.65
2024-03-01T05:48:14.516Z,20.98
2024-03-01T05:50:41.812Z,18.85
2024-03-01T05:53:15.669Z,16.50
2024-03-01T05:55:43.768Z,20.48
2024-03-01T05:58:11.785Z,16.50
2024-03-01T06:00:41.493Z,19.17
2024-03-01T06:03:08.689Z,22.40
2024-03-01T06:05:35.424Z,21.92
2024-03-01T06:08:02.719Z,16.25
2024-03-01T06:10:30.084Z,19.02
2024-03-01T06:12:59.534Z,18.33
2024-03-01T06:15:27.519Z,19.50
2024-03-01T06:17:54.858Z,22.17
2024-03-01T06:20:21.672Z,18.38
2024-03-01T06:22:48.887Z,17.15
2024-03-01T06:25:16.203Z,19.55
2024-03-01T06:27:43.482Z,19.55
2024-03-01T06:30:10.836Z,16.95
2024-03-01T06:32:38.113Z,16.40
2024-03-01T06:35:05.825Z,18.58
2024-03-01T06:37:33.330Z,18.13
2024-03-01T06:40:01.691Z,18.52
2024-03-01T06:42:29.166Z,18.58
2024-03-01T06:44:56.361Z,18.08
2024-03-01T06:47:23.739Z,17.23
2024-03-01T06:49:50.996Z,17.33
2024-03-01T06:52:18.206Z,16.77
2024-03-01T06:54:48.189Z,18.95
2024-03-01T06:59:42.221Z,16.88
2024-03-01T07:02:09.501Z,15.10
2024-03-01T07:04:36.861Z,14.57
2024-03-01T07:07:05.052Z,14.98
2024-03-01T07:09:36.100Z,14.88
2024-03-01T07:12:03.675Z,16.98
2024-03-01T07:14:31.105Z,14.88
2024-03-01T07:16:58.312Z,15.73
2024-03-01T07:19:25.162Z,17.75
2024-03-01T07:21:52.530Z,11.93
2024-03-01T07:24:20.163Z,14.13
2024-03-01T07:26:47.600Z,12.05
2024-03-01T07:29:14.756Z,17.45
2024-03-01T07:31:42.042Z,18.77
2024-03-01T07:34:09.278Z,18.00
2024-03-01T07:36:36.513Z,12.95
2024-03-01T07:39:04.857Z,12.40
2024-03-01T07:41:31.612Z,13.45
2024-03-01T07:43:58.835Z,14.65
2024-03-01T07:46:26.064Z,12.77
2024-03-01T07:48:53.232Z,12.55
2024-03-01T07:51:20.420Z,15.35
2024-03-01T07:53:48.886Z,12.93
2024-03-01T07:56:16.464Z,10.52
2024-03-01T07:58:43.707Z,13.52
2024-03-01T08:01:11.276Z,12.75
2024-03-01T08:03:38.516Z,16.80
2024-03-01T08:06:05.865Z,18.92
2024-03-01T08:08:42.767Z,14.32
2024-03-01T08:11:10.708Z,10.95
2024-03-01T08:13:38.633Z,10.10
2024-03-01T08:16:11.898Z,10.35
2024-03-01T08:18:41.231Z,12.73
2024-03-01T08:21:08.618Z,16.77
2024-03-01T08:23:42.556Z,15.90
2024-03-01T08:26:19.428Z,13.25
2024-03-01T08:28:48.257Z,9.98
2024-03-01T08:31:35.216Z,11.35
2024-03-01T08:34:09.414Z,11.90
2024-03-01T08:36:38.387Z,12.20
2024-03-01T08:39:17.397Z,14.70
2024-03-01T08:41:46.430Z,15.23
2024-03-01T08:44:55.624Z,9.85
2024-03-01T08:47:45.490Z,10.13
2024-03-01T08:50:27.595Z,15.80
2024-03-01T08:52:55.571Z,10.05
2024-03-01T08:55:41.161Z,13.23
2024-03-01T08:58:19.951Z,10.15
2024-03-01T09:00:52.101Z,12.63
2024-03-01T09:03:21.916Z,11.20
2024-03-01T09:05:49.028Z,15.13
2024-03-01T09:08:23.398Z,10.93
2024-03-01T09:10:54.414Z,12.27
2024-03-01T09:13:22.977Z,10.98
2024-03-01T09:15:51.277Z,9.95
2024-03-01T09:18:35.810Z,11.75
2024-03-01T09:21:03.091Z,11.63
2024-03-01T09:23:30.499Z,16.08
2024-03-01T09:26:11.503Z,10.30
2024-03-01T09:28:39.007Z,10.27
2024-03-01T09:31:06.604Z,10.10
2024-03-01T09:33:33.491Z,11.60
2024-03-01T09:36:00.671Z,13.63
2024-03-01T09:38:28.489Z,12.60
2024-03-01T09:41:45.793Z,11.48
2024-03-01T09:44:37.647Z,12.30
2024-03-01T09:47:13.863Z,10.02
2024-03-01T09:50:02.494Z,10.05
2024-03-01T09:52:29.778Z,9.93
2024-03-01T09:55:08.633Z,14.18
2024-03-01T09:57:56.896Z,12.65
2024-03-01T10:00:28.915Z,13.35
2024-03-01T10:03:17.581Z,10.68
2024-03-01T10:06:16.163Z,12.15
2024-03-01T10:08:50.605Z,11.57
2024-03-01T10:11:30.838Z,12.73
2024-03-01T10:14:03.922Z,9.32
2024-03-01T10:16:31.112Z,11.88
2024-03-01T10:19:08.307Z,16.58
2024-03-01T10:21:50.491Z,12.75
2024-03-01T10:24:32.165Z,11.38
2024-03-01T10:27:27.703Z,13.60
2024-03-01T10:30:11.824Z,14.10
2024-03-01T10:33:10.669Z,12.07
2024-03-01T10:36:03.719Z,12.40
2024-03-01T10:38:30.841Z,13.23
2024-03-01T10:41:23.262Z,14.25
2024-03-01T10:44:31.283Z,14.80
2024-03-01T10:47:19.839Z,17.08
2024-03-01T10:50:15.285Z,11.80
2024-03-01T10:52:44.034Z,12.95
2024-03-01T10:55:21.923Z,11.65
2024-03-01T10:58:00.545Z,12.30
2024-03-01T11:00:28.336Z,13.70
2024-03-01T11:03:19.422Z,10.77
2024-03-01T11:06:09.917Z,13.50
2024-03-01T11:08:55.696Z,10.25
2024-03-01T11:11:35.308Z,10.68
2024-03-01T11:14:05.348Z,12.48
2024-03-01T11:16:35.225Z,11.63
2024-03-01T11:19:06.891Z,10.48
2024-03-01T11:21:37.219Z,13.40
2024-03-01T11:24:09.608Z,10.02
2024-03-01T11:26:44.039Z,8.88
2024-03-01T11:29:52.562Z,6.55
2024-03-01T11:32:23.282Z,6.97
2024-03-01T11:35:10.930Z,10.27
2024-03-01T11:37:59.352Z,7.88
2024-03-01T11:40:35.459Z,6.00
2024-03-01T11:43:40.906Z,9.57
2024-03-01T11:46:41.023Z,6.15
2024-03-01T11:49:29.043Z,7.07
2024-03-01T11:52:47.716Z,7.38
2024-03-01T11:55:14.940Z,10.05
2024-03-01T11:57:42.138Z,7.95
2024-03-01T12:00:48.615Z,6.75
2024-03-01T12:04:01.960Z,8.43
2024-03-01T12:06:57.330Z,8.38
2024-03-01T12:09:33.122Z,12.80
2024-03-01T12:12:20.922Z,9.85
2024-03-01T12:14:54.457Z,9.02
2024-03-01T12:17:51.907Z,10.18
2024-03-01T12:20:19.162Z,7.95
2024-03-01T12:23:07.451Z,10.18
2024-03-01T12:25:37.700Z,9.10
2024-03-01T12:28:27.813Z,8.57
2024-03-01T12:31:33.870Z,7.40
2024-03-01T12:34:39.288Z,9.48
2024-03-01T12:37:19.085Z,8.85
2024-03-01T12:40:12.364Z,9.02
2024-03-01T12:43:09.590Z,9.48
2024-03-01T12:45:53.252Z,9.25
2024-03-01T12:48:39.995Z,10.13
2024-03-01T12:51:15.129Z,11.65
2024-03-01T12:53:57.865Z,10.55
2024-03-01T12:56:26.272Z,9.25
2024-03-01T12:59:19.757Z,9.38
2024-03-01T13:02:27.238Z,7.88
2024-03-01T13:05:27.636Z,9.48
2024-03-01T13:07:59.340Z,8.10
2024-03-01T13:10:27.975Z,8.95
2024-03-01T13:13:00.863Z,10.60
2024-03-01T13:15:40.052Z,9.73
2024-03-01T13:18:13.516Z,12.13
2024-03-01T13:21:03.501Z,11.38
2024-03-01T13:24:08.002Z,9.07
2024-03-01T13:27:14.554Z,9.90
2024-03-01T13:32:29.981Z,7.50
2024-03-01T13:35:12.769Z,7.32
2024-03-01T13:37:59.079Z,7.07
2024-03-01T13:40:51.246Z,7.95
2024-03-01T13:43:18.490Z,6.80
2024-03-01T13:45:45.706Z,7.55
2024-03-01T13:48:24.523Z,7.38
2024-03-01T13:50:53.856Z,7.72
2024-03-01T13:53:22.483Z,8.70
2024-03-01T13:55:51.360Z,9.50
2024-03-01T13:58:19.638Z,5.60
2024-03-01T14:00:57.788Z,8.40
2024-03-01T14:03:26.252Z,6.68
2024-03-01T14:05:57.215Z,7.00
2024-03-01T14:08:26.085Z,6.80
2024-03-01T14:10:54.517Z,5.93
2024-03-01T14:13:26.303Z,9.77
2024-03-01T14:16:03.291Z,6.30
2024-03-01T14:18:31.058Z,9.60
2024-03-01T14:20:58.214Z,8.18
2024-03-01T14:23:26.116Z,9.35
2024-03-01T14:25:53.520Z,7.93
2024-03-01T14:28:21.469Z,10.27
2024-03-01T14:30:49.351Z,10.93
2024-03-01T14:33:21.935Z,8.93
2024-03-01T14:35:49.172Z,8.30
2024-03-01T14:38:22.221Z,8.05
2024-03-01T14:40:56.937Z,10.02
2024-03-01T14:43:24.728Z,9.45
2024-03-01T14:45:55.435Z,8.32
2024-03-01T14:48:31.410Z,10.70
2024-03-01T14:50:59.366Z,9.07
2024-03-01T14:53:47.170Z,6.63
2024-03-01T14:56:15.084Z,6.47
2024-03-01T14:58:45.226Z,9.25
2024-03-01T15:01:13.827Z,8.55
2024-03-01T15:03:41.430Z,8.45
2024-03-01T15:06:09.989Z,7.55
2024-03-01T15:08:37.994Z,7.63
2024-03-01T15:11:26.222Z,7.50
2024-03-01T15:13:53.422Z,5.90
2024-03-01T15:16:22.573Z,7.50
2024-03-01T15:18:50.315Z,8.13
2024-03-01T15:21:18.873Z,7.00
2024-03-01T15:23:46.256Z,9.40
2024-03-01T15:26:13.551Z,7.25
2024-03-01T15:28:41.165Z,10.13
2024-03-01T15:31:10.209Z,8.13
2024-03-01T15:33:37.494Z,7.45
2024-03-01T15:36:05.033Z,7.50
2024-03-01T15:38:32.296Z,6.88
2024-03-01T15:41:00.080Z,6.75
2024-03-01T15:43:27.475Z,7.90
2024-03-01T15:45:54.681Z,6.75
2024-03-01T15:48:22.090Z,5.00
2024-03-01T15:50:49.308Z,7.00
2024-03-01T15:53:20.562Z,7.43
2024-03-01T15:55:58.052Z,5.85
2024-03-01T15:58:27.247Z,7.70
2024-03-01T16:00:55.815Z,4.80
2024-03-01T16:03:23.869Z,7.57
2024-03-01T16:05:52.810Z,5.68
2024-03-01T16:08:20.931Z,7.22
2024-03-01T16:10:59.157Z,6.43
2024-03-01T16:13:34.414Z,7.43
2024-03-01T16:16:04.544Z,6.18
2024-03-01T16:18:34.516Z,6.32
2024-03-01T16:23:29.550Z,7.85
2024-03-01T16:25:56.785Z,6.68
2024-03-01T16:28:26.792Z,7.78
2024-03-01T16:33:26.428Z,5.97
2024-03-01T16:36:10.305Z,6.93
2024-03-01T16:38:42.233Z,6.45
2024-03-01T16:41:40.852Z,8.40
2024-03-01T16:44:43.741Z,5.82
2024-03-01T16:47:12.333Z,7.50
2024-03-01T16:49:41.233Z,5.28
2024-03-01T16:52:10.612Z,6.45
2024-03-01T16:54:41.746Z,7.30
2024-03-01T16:57:27.509Z,7.75
2024-03-01T16:59:55.011Z,6.00
2024-03-01T17:02:35.475Z,7.15
2024-03-01T17:05:13.371Z,10.40
2024-03-01T17:07:51.375Z,11.45
2024-03-01T17:10:29.504Z,9.38
2024-03-01T17:12:59.614Z,7.93
2024-03-01T17:15:27.609Z,6.47
2024-03-01T17:17:54.680Z,7.50
2024-03-01T17:20:23.232Z,9.90
2024-03-01T17:22:52.082Z,8.35
2024-03-01T17:25:23.037Z,6.05
2024-03-01T17:27:50.250Z,8.57
2024-03-01T17:30:17.142Z,9.27
2024-03-01T17:32:47.342Z,9.55
2024-03-01T17:35:17.780Z,9.45
2024-03-01T17:37:47.338Z,10.60
2024-03-01T17:40:14.789Z,9.90
2024-03-01T17:42:45.461Z,9.02
2024-03-01T17:45:12.691Z,8.75
2024-03-01T17:47:45.859Z,6.75
2024-03-01T17:50:15.502Z,10.40
2024-03-01T17:52:42.775Z,8.52
2024-03-01T17:55:10.233Z,10.15
2024-03-01T17:57:37.476Z,12.70
2024-03-01T18:00:06.641Z,11.90
2024-03-01T18:02:33.890Z,12.00
2024-03-01T18:05:01.245Z,10.73
2024-03-01T18:07:29.623Z,10.50
2024-03-01T18:09:59.865Z,9.45
2024-03-01T18:12:32.540Z,10.43
2024-03-01T18:15:05.656Z,11.77
2024-03-01T18:17:35.552Z,12.32
2024-03-01T18:20:05.186Z,11.85
2024-03-01T18:22:34.948Z,11.18
2024-03-01T18:25:04.563Z,12.90
2024-03-01T18:27:41.920Z,8.98
2024-03-01T18:30:08.978Z,8.95
2024-03-01T18:32:38.573Z,11.02
2024-03-01T18:35:06.325Z,10.55
2024-03-01T18:37:35.390Z,11.85
2024-03-01T18:40:04.281Z,13.68
2024-03-01T18:42:33.417Z,13.38
2024-03-01T18:45:00.638Z,11.30
2024-03-01T18:47:30.464Z,11.45
2024-03-01T18:50:00.882Z,12.20
2024-03-01T18:52:29.185Z,16.58
2024-03-01T18:54:58.804Z,11.60
2024-03-01T18:57:25.690Z,12.40
2024-03-01T18:59:55.605Z,16.48
2024-03-01T19:02:28.802Z,10.68
2024-03-01T19:04:58.835Z,12.95
2024-03-01T19:07:28.047Z,13.02
2024-03-01T19:09:55.869Z,10.90
2024-03-01T19:12:24.601Z,11.05
2024-03-01T19:14:52.373Z,12.18
2024-03-01T19:17:19.799Z,14.95
2024-03-01T19:19:47.184Z,13.90
2024-03-01T19:22:14.532Z,14.55
2024-03-01T19:24:47.084Z,13.15
2024-03-01T19:27:16.442Z,14.65
2024-03-01T19:29:48.842Z,12.25
2024-03-01T19:32:16.764Z,14.52
2024-03-01T19:34:43.942Z,13.45
2024-03-01T19:37:16.206Z,12.75
2024-03-01T19:39:43.485Z,12.82
2024-03-01T19:42:10.753Z,13.05
2024-03-01T19:44:41.434Z,13.75
2024-03-01T19:47:09.262Z,15.05
2024-03-01T19:49:38.825Z,14.25
2024-03-01T19:52:08.663Z,13.05
2024-03-01T19:54:40.971Z,13.32
2024-03-01T19:57:16.288Z,12.85
2024-03-01T19:59:43.572Z,11.40
2024-03-01T20:02:16.172Z,15.00
2024-03-01T20:04:43.414Z,15.02
2024-03-01T20:07:10.411Z,13.25
2024-03-01T20:09:37.880Z,12.23
2024-03-01T20:12:07.284Z,13.02
2024-03-01T20:14:34.511Z,14.52
2024-03-01T20:17:01.733Z,14.65
2024-03-01T20:19:28.982Z,12.40
2024-03-01T20:21:56.239Z,14.23
2024-03-01T20:24:23.465Z,14.20
2024-03-01T20:26:52.360Z,14.48
2024-03-01T20:29:22.121Z,13.98
2024-03-01T20:31:49.059Z,13.43
2024-03-01T20:34:18.710Z,14.73
2024-03-01T20:36:45.957Z,17.23
2024-03-01T20:39:13.566Z,15.05
2024-03-01T20:41:40.432Z,15.60
2024-03-01T20:44:07.668Z,14.25
2024-03-01T20:46:39.975Z,14.70
2024-03-01T20:49:07.365Z,15.10
2024-03-01T20:51:34.678Z,12.18
2024-03-01T20:54:01.864Z,13.30
2024-03-01T20:56:29.085Z,14.05
2024-03-01T20:58:58.613Z,15.02
2024-03-01T21:01:28.450Z,16.95
2024-03-01T21:03:58.027Z,13.25
2024-03-01T21:06:25.385Z,13.93
2024-03-01T21:08:52.209Z,15.45
2024-03-01T21:11:21.064Z,16.52
2024-03-01T21:13:49.125Z,14.77
2024-03-01T21:16:16.744Z,13.85
2024-03-01T21:18:44.209Z,13.95
2024-03-01T21:21:13.959Z,13.13
2024-03-01T21:23:41.324Z,12.32
2024-03-01T21:26:08.676Z,15.25
2024-03-01T21:28:36.522Z,13.98
2024-03-01T21:31:05.874Z,13.32
2024-03-01T21:33:33.218Z,13.67
2024-03-01T21:36:00.416Z,14.00
2024-03-01T21:38:27.567Z,17.42
2024-03-01T21:40:54.830Z,11.00
2024-03-01T21:43:24.354Z,13.73
2024-03-01T21:45:53.701Z,14.57
2024-03-01T21:48:20.961Z,13.45
2024-03-01T21:50:48.158Z,14.85
2024-03-01T21:53:15.814Z,14.63
2024-03-01T21:55:43.136Z,16.08
2024-03-01T21:58:10.300Z,15.02
2024-03-01T22:00:37.068Z,13.82
2024-03-01T22:03:04.326Z,12.90
2024-03-01T22:05:31.518Z,15.43
2024-03-01T22:08:07.109Z,14.38
2024-03-01T22:10:40.671Z,15.95
2024-03-01T22:13:07.897Z,14.70
2024-03-01T22:15:35.109Z,19.73
2024-03-01T22:18:02.467Z,14.52
2024-03-01T22:20:29.293Z,14.55
2024-03-01T22:22:56.398Z,12.27
2024-03-01T22:25:23.593Z,17.08
2024-03-01T22:27:51.022Z,15.57
2024-03-01T22:30:18.119Z,12.55
2024-03-01T22:32:45.516Z,14.07
2024-03-01T22:35:13.182Z,14.35
2024-03-01T22:37:40.379Z,13.43
2024-03-01T22:40:08.344Z,13.13
2024-03-01T22:42:36.773Z,17.17
2024-03-01T22:45:04.604Z,16.40
2024-03-01T22:47:33.070Z,15.50
2024-03-01T22:50:00.457Z,14.43
2024-03-01T22:52:37.020Z,14.80
2024-03-01T22:55:07.007Z,15.10
2024-03-01T22:57:39.262Z,15.70
2024-03-01T23:00:20.361Z,16.85
2024-03-01T23:02:55.009Z,14.60
2024-03-01T23:05:22.149Z,20.50
2024-03-01T23:07:49.250Z,24.17
2024-03-01T23:10:17.415Z,18.42
2024-03-01T23:12:44.601Z,20.52
2024-03-01T23:15:11.519Z,19.67
2024-03-01T23:17:38.758Z,18.90
2024-03-01T23:20:06.864Z,20.45
2024-03-01T23:22:34.255Z,21.02
2024-03-01T23:25:01.057Z,22.65
2024-03-01T23:27:27.967Z,17.05
2024-03-01T23:29:55.326Z,17.08
2024-03-01T23:32:22.496Z,19.65
2024-03-01T23:34:50.542Z,26.23
2024-03-01T23:37:17.337Z,17.50
2024-03-01T23:39:44.592Z,19.63
2024-03-01T23:42:11.924Z,21.88
2024-03-01T23:44:39.121Z,17.08
2024-03-01T23:47:06.428Z,14.32
2024-03-01T23:49:33.700Z,16.25
2024-03-01T23:52:00.868Z,17.27
2024-03-01T23:54:27.744Z,16.98
2024-03-01T23:56:56.538Z,16.75
2024-03-01T23:59:23.776Z,18.13
